Time;durP1;ratioP1;P1;durP2;ratioP2;P2;SDS_P1;SDS_P2;PMS_P1;PMS_P2;Temp;Humidity;BMP_temperature;BMP_pressure;BME280_temperature;BME280_humidity;BME280_pressure;Samples;Min_cycle;Max_cycle;Signal;HPM_P1;HPM_P2
2021/08/15 07:11:21;;;;;;;6.75;1.10;;;;;;;;;;2119539;27;20476;-71
2021/08/15 07:12:40;;;;;;;4.18;1.08;;;;;;;;;;2101630;28;20040;-70
2021/08/15 07:13:59;;;;;;;4.07;1.10;;;;;;;;;;2105734;28;20032;-70
2021/08/15 07:15:18;;;;;;;4.03;0.90;;;;;;;;;;2111997;28;20594;-69
2021/08/15 07:16:37;;;;;;;4.20;0.90;;;;;;;;;;2103620;28;20115;-69
2021/08/15 07:17:56;;;;;;;1.70;0.88;;;;;;;;;;2105147;28;20032;-70
2021/08/15 07:19:15;;;;;;;3.88;0.95;;;;;;;;;;2102107;28;20429;-72
2021/08/15 07:20:34;;;;;;;4.53;0.98;;;;;;;;;;2106053;28;20028;-70
2021/08/15 07:21:53;;;;;;;4.55;0.80;;;;;;;;;;2112514;28;20131;-70
2021/08/15 07:23:12;;;;;;;5.57;1.00;;;;;;;;;;2109539;28;20477;-70
2021/08/15 07:24:31;;;;;;;6.60;0.80;;;;;;;;;;2111823;28;20493;-70
2021/08/15 07:25:50;;;;;;;4.57;0.88;;;;;;;;;;2111280;28;20497;-70
2021/08/15 07:27:09;;;;;;;3.50;0.80;;;;;;;;;;2101477;28;20032;-73
2021/08/15 07:28:27;;;;;;;2.88;0.77;;;;;;;;;;2098488;28;20472;-75
2021/08/15 07:29:46;;;;;;;2.92;0.70;;;;;;;;;;2105489;28;20032;-73
2021/08/15 07:31:05;;;;;;;5.00;0.90;;;;;;;;;;2103316;28;20029;-74
2021/08/15 07:32:24;;;;;;;6.18;0.80;;;;;;;;;;2106920;28;20385;-74
2021/08/15 07:33:43;;;;;;;4.22;0.88;;;;;;;;;;2108854;28;20028;-74
2021/08/15 07:35:02;;;;;;;2.80;1.02;;;;;;;;;;2097965;28;20107;-72
2021/08/15 07:36:21;;;;;;;1.58;0.88;;;;;;;;;;2107644;28;20413;-73
2021/08/15 07:37:39;;;;;;;2.22;0.82;;;;;;;;;;2100481;28;20025;-72
2021/08/15 07:38:58;;;;;;;2.70;0.73;;;;;;;;;;2106268;28;20036;-71
2021/08/15 07:40:17;;;;;;;2.05;0.65;;;;;;;;;;2102052;28;20032;-71
2021/08/15 07:41:37;;;;;;;2.28;0.88;;;;;;;;;;2109499;28;20036;-73
2021/08/15 07:42:56;;;;;;;2.95;0.50;;;;;;;;;;2108168;28;20110;-72
2021/08/15 07:44:15;;;;;;;2.40;0.82;;;;;;;;;;2097376;28;20020;-73
2021/08/15 07:45:34;;;;;;;3.40;0.82;;;;;;;;;;2100150;28;20029;-73
2021/08/15 07:46:53;;;;;;;2.28;0.77;;;;;;;;;;2108078;28;20028;-72
2021/08/15 07:48:11;;;;;;;4.82;0.88;;;;;;;;;;2109713;28;20107;-72
2021/08/15 07:49:31;;;;;;;2.38;0.57;;;;;;;;;;2103540;28;20051;-72
2021/08/15 07:50:50;;;;;;;3.65;1.02;;;;;;;;;;2109067;28;20028;-73
2021/08/15 07:52:09;;;;;;;2.10;0.70;;;;;;;;;;2109560;28;20474;-73
2021/08/15 07:53:28;;;;;;;4.32;0.70;;;;;;;;;;2102526;28;20040;-72
2021/08/15 07:54:47;;;;;;;4.60;0.77;;;;;;;;;;2099869;28;20044;-72
2021/08/15 07:56:06;;;;;;;3.92;0.70;;;;;;;;;;2104762;28;20027;-74
2021/08/15 07:57:26;;;;;;;4.18;1.13;;;;;;;;;;2102515;28;20029;-73
2021/08/15 07:58:45;;;;;;;5.35;0.98;;;;;;;;;;2099162;28;20020;-74
2021/08/15 08:00:05;;;;;;;2.03;0.80;;;;;;;;;;2105653;28;20025;-73
2021/08/15 08:01:24;;;;;;;2.17;0.68;;;;;;;;;;2108645;28;20028;-73
2021/08/15 08:02:43;;;;;;;1.42;0.70;;;;;;;;;;2113152;28;20027;-72
2021/08/15 08:04:02;;;;;;;2.83;0.88;;;;;;;;;;2108343;28;20063;-73
2021/08/15 08:05:21;;;;;;;1.50;0.50;;;;;;;;;;2108711;28;20028;-73
2021/08/15 08:06:40;;;;;;;3.50;0.80;;;;;;;;;;2109495;28;20020;-73
2021/08/15 08:07:59;;;;;;;2.80;1.05;;;;;;;;;;2103718;28;20024;-73
2021/08/15 08:09:17;;;;;;;4.32;1.08;;;;;;;;;;2105313;28;20423;-72
2021/08/15 08:10:37;;;;;;;2.80;0.98;;;;;;;;;;2109306;28;20050;-73
2021/08/15 08:11:56;;;;;;;6.78;1.13;;;;;;;;;;2100513;28;20460;-73
2021/08/15 08:13:15;;;;;;;3.38;0.88;;;;;;;;;;2108319;28;20020;-73
2021/08/15 08:14:34;;;;;;;1.20;0.63;;;;;;;;;;2108705;28;20029;-73
2021/08/15 08:15:53;;;;;;;3.92;0.80;;;;;;;;;;2113068;28;20020;-76
2021/08/15 08:17:14;;;;;;;3.85;0.50;;;;;;;;;;2107852;28;20019;-73
2021/08/15 08:18:33;;;;;;;3.28;0.68;;;;;;;;;;2100788;28;20024;-73
2021/08/15 08:19:52;;;;;;;1.73;0.65;;;;;;;;;;2095843;28;20017;-72
2021/08/15 08:21:11;;;;;;;2.50;0.90;;;;;;;;;;2098726;28;20024;-73
2021/08/15 08:22:30;;;;;;;3.00;0.93;;;;;;;;;;2099465;28;20025;-72
2021/08/15 08:23:49;;;;;;;6.22;1.08;;;;;;;;;;2100884;28;20036;-72
2021/08/15 08:25:08;;;;;;;2.65;0.57;;;;;;;;;;2106019;28;20088;-72
2021/08/15 08:26:27;;;;;;;1.45;0.60;;;;;;;;;;2094551;28;20028;-73
2021/08/15 08:27:46;;;;;;;2.20;0.55;;;;;;;;;;2099697;28;20048;-73
2021/08/15 08:29:05;;;;;;;1.63;0.95;;;;;;;;;;2097160;28;20024;-73
2021/08/15 08:30:24;;;;;;;5.30;0.98;;;;;;;;;;2097927;28;20036;-72
2021/08/15 08:31:42;;;;;;;1.20;0.80;;;;;;;;;;2105652;28;20024;-74
2021/08/15 08:33:01;;;;;;;3.47;0.95;;;;;;;;;;2102709;28;20025;-73
2021/08/15 08:34:20;;;;;;;3.75;0.93;;;;;;;;;;2096520;28;20075;-72
2021/08/15 08:35:39;;;;;;;2.10;1.02;;;;;;;;;;2089849;28;20037;-73
2021/08/15 08:36:57;;;;;;;3.97;0.80;;;;;;;;;;2102290;28;20028;-75
2021/08/15 08:38:16;;;;;;;4.60;0.73;;;;;;;;;;2092725;28;20049;-73
2021/08/15 08:39:36;;;;;;;2.55;0.73;;;;;;;;;;2099482;28;20024;-74
2021/08/15 08:40:55;;;;;;;4.13;0.88;;;;;;;;;;2104230;28;20032;-75
2021/08/15 08:42:15;;;;;;;4.57;0.90;;;;;;;;;;2094392;28;20032;-73
2021/08/15 08:43:36;;;;;;;3.67;0.80;;;;;;;;;;2102640;28;20024;-74
2021/08/15 08:45:02;;;;;;;3.50;0.40;;;;;;;;;;2105643;28;20032;-74
2021/08/15 08:46:23;;;;;;;2.75;1.10;;;;;;;;;;2104538;28;20032;-74
2021/08/15 08:47:42;;;;;;;1.85;1.00;;;;;;;;;;2105493;28;20028;-73
2021/08/15 08:49:01;;;;;;;4.35;0.98;;;;;;;;;;2105527;28;20398;-73
2021/08/15 08:50:21;;;;;;;2.67;1.08;;;;;;;;;;2097405;28;20028;-73
2021/08/15 08:51:40;;;;;;;3.10;0.90;;;;;;;;;;2091557;28;20025;-73
2021/08/15 08:53:00;;;;;;;5.57;0.70;;;;;;;;;;2093393;28;20351;-74
2021/08/15 08:54:18;;;;;;;1.90;0.68;;;;;;;;;;2090271;28;21470;-75
2021/08/15 08:55:37;;;;;;;1.08;0.70;;;;;;;;;;2097855;28;20024;-75
2021/08/15 08:56:56;;;;;;;2.03;0.60;;;;;;;;;;2105285;28;20021;-71
2021/08/15 08:58:15;;;;;;;5.15;0.90;;;;;;;;;;2107050;28;20028;-72
2021/08/15 08:59:37;;;;;;;1.38;0.47;;;;;;;;;;2094687;28;20035;-71
2021/08/15 09:00:56;;;;;;;1.55;0.57;;;;;;;;;;2097290;28;20021;-71
2021/08/15 09:02:16;;;;;;;2.55;0.70;;;;;;;;;;2099744;28;20024;-71
2021/08/15 09:03:35;;;;;;;0.82;0.35;;;;;;;;;;2097721;28;20115;-70
2021/08/15 09:04:54;;;;;;;2.08;0.50;;;;;;;;;;2093384;28;20064;-71
2021/08/15 09:06:23;;;;;;;1.55;0.40;;;;;;;;;;2093766;28;20405;-70
2021/08/15 09:07:42;;;;;;;1.50;0.60;;;;;;;;;;2103855;28;20024;-71
2021/08/15 09:09:08;;;;;;;0.50;0.40;;;;;;;;;;2095820;28;20112;-71
2021/08/15 09:10:45;;;;;;;2.53;0.50;;;;;;;;;;2099749;28;20104;-70
2021/08/15 09:12:05;;;;;;;4.00;0.82;;;;;;;;;;2103827;28;20478;-70
2021/08/15 09:13:28;;;;;;;2.15;0.35;;;;;;;;;;2094846;28;20151;-69
2021/08/15 09:14:47;;;;;;;3.05;0.40;;;;;;;;;;2100149;28;20020;-69
2021/08/15 09:16:06;;;;;;;1.85;0.80;;;;;;;;;;2103223;28;20036;-69
2021/08/15 09:17:33;;;;;;;2.13;0.50;;;;;;;;;;2105939;28;20032;-69
2021/08/15 09:18:52;;;;;;;1.95;0.55;;;;;;;;;;2104052;28;20036;-68
2021/08/15 09:20:12;;;;;;;2.92;0.85;;;;;;;;;;2097425;28;20025;-69
2021/08/15 09:21:31;;;;;;;1.55;0.60;;;;;;;;;;2097795;28;20028;-69
2021/08/15 09:22:50;;;;;;;1.95;0.60;;;;;;;;;;2103688;28;20032;-70
2021/08/15 09:24:09;;;;;;;1.00;0.38;;;;;;;;;;2105001;28;20493;-70
2021/08/15 09:25:28;;;;;;;2.67;0.50;;;;;;;;;;2104587;28;20036;-69
2021/08/15 09:26:55;;;;;;;3.75;0.77;;;;;;;;;;2096677;28;20033;-69
2021/08/15 09:28:13;;;;;;;1.92;0.50;;;;;;;;;;2103714;28;20103;-70
2021/08/15 09:29:32;;;;;;;1.60;0.47;;;;;;;;;;2101248;28;20075;-70
2021/08/15 09:30:51;;;;;;;2.50;0.43;;;;;;;;;;2105217;28;20024;-69
2021/08/15 09:32:13;;;;;;;0.95;0.35;;;;;;;;;;2100245;28;20446;-70
2021/08/15 09:33:38;;;;;;;0.90;0.50;;;;;;;;;;2102358;28;20024;-69
2021/08/15 09:34:58;;;;;;;1.00;0.22;;;;;;;;;;2105669;28;20103;-69
2021/08/15 09:36:27;;;;;;;1.30;0.43;;;;;;;;;;2106641;28;20016;-69
2021/08/15 09:37:47;;;;;;;0.85;0.30;;;;;;;;;;2100063;28;20028;-70
2021/08/15 09:39:07;;;;;;;0.60;0.35;;;;;;;;;;2105435;28;20024;-69
2021/08/15 09:40:25;;;;;;;0.82;0.35;;;;;;;;;;2096940;28;20025;-69
2021/08/15 09:41:49;;;;;;;2.17;0.25;;;;;;;;;;2098558;28;20394;-69
2021/08/15 09:43:10;;;;;;;0.20;0.20;;;;;;;;;;2095509;28;20104;-69
2021/08/15 09:44:30;;;;;;;1.05;0.28;;;;;;;;;;2099296;28;20032;-69
2021/08/15 09:45:50;;;;;;;0.65;0.10;;;;;;;;;;2103541;28;20021;-69
2021/08/15 09:47:10;;;;;;;1.95;0.30;;;;;;;;;;2101105;28;20024;-69
2021/08/15 09:48:33;;;;;;;0.95;0.20;;;;;;;;;;2105254;28;20020;-70
2021/08/15 09:49:52;;;;;;;1.08;0.25;;;;;;;;;;2104109;28;20024;-69
2021/08/15 09:51:11;;;;;;;1.88;0.30;;;;;;;;;;2103985;28;20031;-69
2021/08/15 09:52:37;;;;;;;3.72;0.28;;;;;;;;;;2104574;28;20465;-69
2021/08/15 09:53:56;;;;;;;0.75;0.20;;;;;;;;;;2096521;28;20024;-69
2021/08/15 09:55:16;;;;;;;2.20;0.38;;;;;;;;;;2100861;28;20498;-69
2021/08/15 09:56:35;;;;;;;0.30;0.20;;;;;;;;;;2103830;28;20440;-69
2021/08/15 09:57:54;;;;;;;4.85;0.20;;;;;;;;;;2099299;28;20428;-69
2021/08/15 09:59:14;;;;;;;1.17;0.20;;;;;;;;;;2103552;28;20107;-70
2021/08/15 10:00:33;;;;;;;1.55;0.20;;;;;;;;;;2104074;28;20423;-69
2021/08/15 10:01:53;;;;;;;0.20;0.20;;;;;;;;;;2104609;28;20024;-70
2021/08/15 10:03:12;;;;;;;0.63;0.15;;;;;;;;;;2099036;28;20451;-70
2021/08/15 10:04:31;;;;;;;0.20;0.20;;;;;;;;;;2104764;28;20099;-69
2021/08/15 10:05:50;;;;;;;0.30;0.17;;;;;;;;;;2102935;28;20450;-69
2021/08/15 10:07:10;;;;;;;1.75;0.20;;;;;;;;;;2096796;28;20021;-68
2021/08/15 10:08:30;;;;;;;1.75;0.10;;;;;;;;;;2098519;28;20082;-69
2021/08/15 10:09:49;;;;;;;0.30;0.10;;;;;;;;;;2103165;28;20020;-69
2021/08/15 10:11:08;;;;;;;0.20;0.20;;;;;;;;;;2102673;28;20455;-70
2021/08/15 10:12:27;;;;;;;0.82;0.10;;;;;;;;;;2105149;28;20119;-69
2021/08/15 10:13:46;;;;;;;0.03;0.03;;;;;;;;;;2106481;28;20412;-69
2021/08/15 10:15:09;;;;;;;0.20;0.20;;;;;;;;;;2102587;28;20485;-69
2021/08/15 10:16:30;;;;;;;0.65;0.10;;;;;;;;;;2099308;28;20024;-69
2021/08/15 10:17:51;;;;;;;0.28;0.20;;;;;;;;;;2093370;28;20033;-70
2021/08/15 10:19:11;;;;;;;0.25;0.10;;;;;;;;;;2101225;28;20028;-69
2021/08/15 10:20:30;;;;;;;0.10;0.10;;;;;;;;;;2105182;28;20050;-69
2021/08/15 10:21:49;;;;;;;0.17;0.17;;;;;;;;;;2095360;28;20020;-69
2021/08/15 10:23:10;;;;;;;0.20;0.20;;;;;;;;;;2100577;28;20103;-69
2021/08/15 10:24:44;;;;;;;0.10;0.10;;;;;;;;;;2097384;28;20029;-69
2021/08/15 10:26:05;;;;;;;1.20;0.10;;;;;;;;;;2101667;28;20115;-69
2021/08/15 10:27:39;;;;;;;5.47;0.22;;;;;;;;;;2095741;28;20021;-69
2021/08/15 10:28:58;;;;;;;3.30;0.20;;;;;;;;;;2102064;28;20048;-70
2021/08/15 10:30:20;;;;;;;1.38;0.15;;;;;;;;;;2101925;28;20481;-69
2021/08/15 10:32:11;;;;;;;0.20;0.10;;;;;;;;;;2102226;28;20028;-69
2021/08/15 10:33:31;;;;;;;0.70;0.20;;;;;;;;;;2071902;28;20416;-69
2021/08/15 10:34:50;;;;;;;0.10;0.10;;;;;;;;;;2103541;28;20032;-69
2021/08/15 10:36:16;;;;;;;0.20;0.20;;;;;;;;;;2090630;28;20518;-70
2021/08/15 10:37:36;;;;;;;0.20;0.10;;;;;;;;;;2100020;28;20036;-69
2021/08/15 10:38:56;;;;;;;1.17;0.10;;;;;;;;;;2091465;28;20433;-69
2021/08/15 10:40:33;;;;;;;1.40;0.10;;;;;;;;;;2100071;28;20103;-69
2021/08/15 10:41:52;;;;;;;0.13;0.13;;;;;;;;;;2104848;28;20115;-70
2021/08/15 10:43:12;;;;;;;0.20;0.10;;;;;;;;;;2104630;28;20024;-69
2021/08/15 10:44:51;;;;;;;0.63;0.20;;;;;;;;;;2102073;28;20486;-69
2021/08/15 10:46:15;;;;;;;0.55;0.10;;;;;;;;;;2103090;28;20036;-69
2021/08/15 10:47:35;;;;;;;0.10;0.10;;;;;;;;;;2095338;28;20029;-69
2021/08/15 10:48:55;;;;;;;2.53;0.10;;;;;;;;;;2095937;28;20024;-69
2021/08/15 10:50:14;;;;;;;0.10;0.10;;;;;;;;;;2101821;28;20024;-69
2021/08/15 10:51:42;;;;;;;0.10;0.08;;;;;;;;;;2103278;28;20028;-69
2021/08/15 10:53:21;;;;;;;1.95;0.13;;;;;;;;;;2100909;28;20021;-70
2021/08/15 10:54:40;;;;;;;0.30;0.10;;;;;;;;;;2099516;28;20028;-70
2021/08/15 10:56:02;;;;;;;0.30;0.10;;;;;;;;;;2101404;28;20401;-69
2021/08/15 10:57:36;;;;;;;1.63;0.10;;;;;;;;;;2099831;28;20029;-69
2021/08/15 10:58:55;;;;;;;0.30;0.30;;;;;;;;;;2100169;28;20028;-70
2021/08/15 11:00:29;;;;;;;0.25;0.20;;;;;;;;;;2101911;28;20037;-70
2021/08/15 11:01:48;;;;;;;0.30;0.13;;;;;;;;;;2101577;28;20462;-70
2021/08/15 11:03:13;;;;;;;0.10;0.10;;;;;;;;;;2091972;28;20025;-69
2021/08/15 11:04:32;;;;;;;2.33;0.50;;;;;;;;;;2098146;28;20147;-70
2021/08/15 11:05:51;;;;;;;1.65;0.20;;;;;;;;;;2099890;28;20013;-70
2021/08/15 11:07:30;;;;;;;0.85;0.13;;;;;;;;;;2094783;28;20048;-70
2021/08/15 11:08:49;;;;;;;0.10;0.10;;;;;;;;;;2100747;28;20020;-70
2021/08/15 11:10:09;;;;;;;0.43;0.20;;;;;;;;;;2089830;28;20482;-70
2021/08/15 11:11:35;;;;;;;0.10;0.10;;;;;;;;;;2099259;28;20076;-70
2021/08/15 11:13:14;;;;;;;0.30;0.20;;;;;;;;;;2095895;28;20032;-69
2021/08/15 11:14:33;;;;;;;0.77;0.10;;;;;;;;;;2098240;28;20017;-70
2021/08/15 11:15:52;;;;;;;0.55;0.10;;;;;;;;;;2103926;28;20032;-69
2021/08/15 11:17:12;;;;;;;0.50;0.15;;;;;;;;;;2104324;28;20107;-70
2021/08/15 11:18:32;;;;;;;0.10;0.08;;;;;;;;;;2099157;28;20021;-69
2021/08/15 11:19:51;;;;;;;1.17;0.10;;;;;;;;;;2094614;28;20494;-69
2021/08/15 11:21:10;;;;;;;0.45;0.10;;;;;;;;;;2087665;28;20029;-69
2021/08/15 11:22:29;;;;;;;1.55;0.20;;;;;;;;;;2087176;28;20033;-69
2021/08/15 11:23:48;;;;;;;0.63;0.10;;;;;;;;;;2090874;28;20425;-69
2021/08/15 11:25:07;;;;;;;0.40;0.10;;;;;;;;;;2099972;28;20110;-69
2021/08/15 11:26:26;;;;;;;2.05;0.73;;;;;;;;;;2105491;28;20020;-69
2021/08/15 11:27:47;;;;;;;0.20;0.20;;;;;;;;;;2099325;28;20490;-69
2021/08/15 11:29:08;;;;;;;1.48;0.20;;;;;;;;;;2101927;28;20040;-69
2021/08/15 11:30:27;;;;;;;0.52;0.32;;;;;;;;;;2102938;28;20029;-69
2021/08/15 11:31:49;;;;;;;0.10;0.10;;;;;;;;;;2102547;28;20120;-69
2021/08/15 11:33:11;;;;;;;0.25;0.25;;;;;;;;;;2103903;28;20416;-69
2021/08/15 11:34:29;;;;;;;0.10;0.10;;;;;;;;;;2103894;28;20442;-70
2021/08/15 11:35:50;;;;;;;0.40;0.10;;;;;;;;;;2104598;28;20036;-70
2021/08/15 11:37:09;;;;;;;1.70;0.15;;;;;;;;;;2102250;28;20024;-70
2021/08/15 11:38:28;;;;;;;0.20;0.20;;;;;;;;;;2091017;28;20234;-69
2021/08/15 11:39:47;;;;;;;0.10;0.10;;;;;;;;;;2098907;28;20432;-69
2021/08/15 11:41:06;;;;;;;0.20;0.20;;;;;;;;;;2101388;28;20042;-70
2021/08/15 11:42:25;;;;;;;0.65;0.28;;;;;;;;;;2104763;28;20028;-69
2021/08/15 11:43:53;;;;;;;0.28;0.10;;;;;;;;;;2095464;28;20444;-70
2021/08/15 11:45:12;;;;;;;1.92;0.50;;;;;;;;;;2098824;28;20028;-70
2021/08/15 11:46:31;;;;;;;0.38;0.10;;;;;;;;;;2090216;28;20029;-69
2021/08/15 11:47:50;;;;;;;1.33;0.30;;;;;;;;;;2096163;28;20037;-70
2021/08/15 11:49:09;;;;;;;0.45;0.10;;;;;;;;;;2100150;28;20017;-69
2021/08/15 11:50:31;;;;;;;1.20;0.20;;;;;;;;;;2101983;28;20028;-70
2021/08/15 11:52:10;;;;;;;1.95;0.20;;;;;;;;;;2101611;28;20058;-69
2021/08/15 11:53:30;;;;;;;0.57;0.22;;;;;;;;;;2092806;28;20028;-69
2021/08/15 11:54:50;;;;;;;0.28;0.10;;;;;;;;;;2102330;28;20103;-69
2021/08/15 11:56:11;;;;;;;0.20;0.00;;;;;;;;;;2102036;28;20482;-69
2021/08/15 11:57:46;;;;;;;0.10;0.05;;;;;;;;;;2104845;28;20031;-70
2021/08/15 11:59:06;;;;;;;0.30;0.10;;;;;;;;;;2095461;28;20504;-70
2021/08/15 12:00:31;;;;;;;0.13;0.13;;;;;;;;;;2100658;28;20485;-70
2021/08/15 12:01:51;;;;;;;0.20;0.10;;;;;;;;;;2104657;28;20386;-69
2021/08/15 12:03:10;;;;;;;0.10;0.10;;;;;;;;;;2102067;28;20029;-70
2021/08/15 12:04:29;;;;;;;0.65;0.30;;;;;;;;;;2107248;28;20024;-69
2021/08/15 12:05:48;;;;;;;1.33;0.15;;;;;;;;;;2101197;28;21821;-70
2021/08/15 12:07:07;;;;;;;1.95;0.20;;;;;;;;;;2093291;28;20033;-68
2021/08/15 12:08:34;;;;;;;2.42;0.20;;;;;;;;;;2101339;28;20024;-71
2021/08/15 12:10:13;;;;;;;1.35;0.17;;;;;;;;;;2102057;28;20466;-69
2021/08/15 12:11:34;;;;;;;0.15;0.13;;;;;;;;;;2059753;28;20038;-70
2021/08/15 12:13:12;;;;;;;4.35;0.20;;;;;;;;;;2093727;28;20461;-69
2021/08/15 12:14:35;;;;;;;1.75;0.20;;;;;;;;;;2102008;28;20013;-69
2021/08/15 12:15:57;;;;;;;0.20;0.20;;;;;;;;;;2097065;28;20052;-69
2021/08/15 12:17:18;;;;;;;0.93;0.10;;;;;;;;;;2095576;28;20059;-69
2021/08/15 12:18:38;;;;;;;0.20;0.20;;;;;;;;;;2093531;28;20021;-69
2021/08/15 12:20:17;;;;;;;0.10;0.10;;;;;;;;;;2097330;28;20025;-69
2021/08/15 12:21:37;;;;;;;1.20;0.20;;;;;;;;;;2102843;28;20043;-69
2021/08/15 12:23:06;;;;;;;0.20;0.10;;;;;;;;;;2098234;28;20103;-70
2021/08/15 12:24:29;;;;;;;0.60;0.20;;;;;;;;;;2101258;28;20036;-70
2021/08/15 12:26:04;;;;;;;0.80;0.00;;;;;;;;;;2106074;28;20024;-69
2021/08/15 12:27:24;;;;;;;0.10;0.10;;;;;;;;;;2097672;28;20506;-69
2021/08/15 12:28:42;;;;;;;0.30;0.20;;;;;;;;;;2092457;28;20024;-69
2021/08/15 12:30:01;;;;;;;1.08;0.20;;;;;;;;;;2101018;28;20028;-69
2021/08/15 12:31:22;;;;;;;0.50;0.20;;;;;;;;;;2103295;28;20024;-69
2021/08/15 12:32:41;;;;;;;0.55;0.38;;;;;;;;;;2095486;28;20482;-69
2021/08/15 12:34:05;;;;;;;0.35;0.20;;;;;;;;;;2103307;28;20021;-69
2021/08/15 12:35:26;;;;;;;0.90;0.20;;;;;;;;;;2105816;28;20017;-69
2021/08/15 12:36:49;;;;;;;1.10;0.20;;;;;;;;;;2104256;28;20474;-69
2021/08/15 12:38:24;;;;;;;0.20;0.20;;;;;;;;;;2104183;28;20139;-69
2021/08/15 12:39:44;;;;;;;0.22;0.10;;;;;;;;;;2096614;28;20037;-70
2021/08/15 12:41:22;;;;;;;1.27;0.20;;;;;;;;;;2101236;28;20040;-70
2021/08/15 12:42:52;;;;;;;0.22;0.22;;;;;;;;;;2100971;28;20027;-69
2021/08/15 12:44:12;;;;;;;0.08;0.08;;;;;;;;;;2093981;28;20492;-69
2021/08/15 12:45:41;;;;;;;0.82;0.10;;;;;;;;;;2101550;28;20067;-69
2021/08/15 12:47:08;;;;;;;1.10;0.10;;;;;;;;;;2105703;28;20494;-70
2021/08/15 12:48:31;;;;;;;0.10;0.10;;;;;;;;;;2104173;28;20028;-73
2021/08/15 12:49:52;;;;;;;;;;;;;;;;;;2096768;28;20036;-72
2021/08/15 12:51:18;;;;;;;2.55;0.20;;;;;;;;;;2102231;28;20286;-73
2021/08/15 12:52:43;;;;;;;0.70;0.28;;;;;;;;;;2102365;28;20056;-73
2021/08/15 12:54:02;;;;;;;0.20;0.20;;;;;;;;;;2101885;28;20016;-73
2021/08/15 12:55:26;;;;;;;0.65;0.10;;;;;;;;;;2101785;28;20016;-73
2021/08/15 12:56:44;;;;;;;1.25;0.10;;;;;;;;;;2101637;28;20020;-73
2021/08/15 12:58:07;;;;;;;0.20;0.20;;;;;;;;;;2105946;28;20021;-73
2021/08/15 12:59:27;;;;;;;0.15;0.13;;;;;;;;;;2101101;28;20482;-70
2021/08/15 13:00:47;;;;;;;1.27;0.28;;;;;;;;;;2102069;28;20032;-70
2021/08/15 13:02:06;;;;;;;0.50;0.20;;;;;;;;;;2097028;28;20024;-70
2021/08/15 13:03:25;;;;;;;0.45;0.10;;;;;;;;;;2099614;28;20485;-70
2021/08/15 13:04:44;;;;;;;0.47;0.25;;;;;;;;;;2095892;28;20108;-69
2021/08/15 13:06:06;;;;;;;2.30;0.35;;;;;;;;;;2093297;28;20020;-70
2021/08/15 13:07:26;;;;;;;0.28;0.20;;;;;;;;;;2093222;28;20020;-70
2021/08/15 13:08:44;;;;;;;0.40;0.20;;;;;;;;;;2093210;28;20021;-69
2021/08/15 13:10:04;;;;;;;0.60;0.30;;;;;;;;;;2093972;28;20036;-70
2021/08/15 13:11:23;;;;;;;0.43;0.10;;;;;;;;;;2099043;28;20048;-70
2021/08/15 13:12:42;;;;;;;3.25;0.30;;;;;;;;;;2103820;28;20028;-70
2021/08/15 13:14:01;;;;;;;0.22;0.10;;;;;;;;;;2104447;28;20486;-70
2021/08/15 13:15:20;;;;;;;1.17;0.40;;;;;;;;;;2097216;28;20511;-70
2021/08/15 13:16:39;;;;;;;0.43;0.20;;;;;;;;;;2095840;28;20037;-70
2021/08/15 13:17:59;;;;;;;1.23;0.20;;;;;;;;;;2102235;28;20115;-70
2021/08/15 13:19:17;;;;;;;0.50;0.30;;;;;;;;;;2096707;28;20016;-70
2021/08/15 13:20:38;;;;;;;1.35;0.20;;;;;;;;;;2100126;28;20024;-70
2021/08/15 13:21:57;;;;;;;0.45;0.30;;;;;;;;;;2101698;28;20408;-69
2021/08/15 13:23:16;;;;;;;0.73;0.40;;;;;;;;;;2097276;28;20020;-70
2021/08/15 13:24:36;;;;;;;1.08;0.40;;;;;;;;;;2100903;28;20032;-69
2021/08/15 13:25:56;;;;;;;0.22;0.20;;;;;;;;;;2095525;28;20033;-69
2021/08/15 13:27:15;;;;;;;1.65;0.20;;;;;;;;;;2101582;28;20481;-69
2021/08/15 13:28:34;;;;;;;0.68;0.30;;;;;;;;;;2095798;28;20024;-68
2021/08/15 13:29:53;;;;;;;0.77;0.28;;;;;;;;;;2104968;28;20444;-69
2021/08/15 13:31:12;;;;;;;0.15;0.13;;;;;;;;;;2104658;28;20024;-68
2021/08/15 13:32:31;;;;;;;1.65;0.20;;;;;;;;;;2091880;28;20028;-68
2021/08/15 13:33:50;;;;;;;0.45;0.20;;;;;;;;;;2097671;28;20028;-69
2021/08/15 13:35:10;;;;;;;2.00;0.25;;;;;;;;;;2105890;28;20024;-69
2021/08/15 13:36:30;;;;;;;0.30;0.20;;;;;;;;;;2103600;28;20421;-69
2021/08/15 13:37:49;;;;;;;1.45;0.20;;;;;;;;;;2095156;28;20032;-69
2021/08/15 13:39:08;;;;;;;0.43;0.30;;;;;;;;;;2100062;28;20095;-69
2021/08/15 13:40:27;;;;;;;2.45;0.20;;;;;;;;;;2104595;28;20490;-69
2021/08/15 13:41:46;;;;;;;0.70;0.20;;;;;;;;;;2101345;28;20107;-70
2021/08/15 13:43:05;;;;;;;1.23;0.10;;;;;;;;;;2104578;28;20024;-69
2021/08/15 13:44:24;;;;;;;0.20;0.20;;;;;;;;;;2093947;28;20475;-68
2021/08/15 13:45:43;;;;;;;0.20;0.20;;;;;;;;;;2100058;28;20037;-69
2021/08/15 13:47:02;;;;;;;0.50;0.10;;;;;;;;;;2095329;28;20104;-69
2021/08/15 13:48:21;;;;;;;0.88;0.30;;;;;;;;;;2090159;28;20147;-70
2021/08/15 13:49:40;;;;;;;0.30;0.30;;;;;;;;;;2096739;28;20036;-69
2021/08/15 13:50:59;;;;;;;0.20;0.20;;;;;;;;;;2096604;28;20029;-69
2021/08/15 13:52:17;;;;;;;0.35;0.35;;;;;;;;;;2102739;28;20020;-69
2021/08/15 13:53:36;;;;;;;0.20;0.20;;;;;;;;;;2094825;28;20573;-71
2021/08/15 13:54:55;;;;;;;0.35;0.35;;;;;;;;;;2096142;28;20025;-69
2021/08/15 13:56:14;;;;;;;0.73;0.40;;;;;;;;;;2102354;28;20091;-69
2021/08/15 13:57:34;;;;;;;0.63;0.30;;;;;;;;;;2091961;28;20215;-69
2021/08/15 13:58:53;;;;;;;0.30;0.30;;;;;;;;;;2090848;28;20028;-69
2021/08/15 14:00:13;;;;;;;0.22;0.13;;;;;;;;;;2099104;28;20021;-69
2021/08/15 14:01:32;;;;;;;0.35;0.25;;;;;;;;;;2093965;28;20175;-70
2021/08/15 14:02:51;;;;;;;0.52;0.22;;;;;;;;;;2098219;28;20032;-70
2021/08/15 14:04:10;;;;;;;0.30;0.30;;;;;;;;;;2092057;28;20052;-69
2021/08/15 14:05:29;;;;;;;0.68;0.22;;;;;;;;;;2097752;28;20033;-69
2021/08/15 14:06:48;;;;;;;1.95;0.28;;;;;;;;;;2100347;28;20028;-70
2021/08/15 14:08:07;;;;;;;1.38;0.10;;;;;;;;;;2101881;28;20425;-69
2021/08/15 14:09:26;;;;;;;0.40;0.40;;;;;;;;;;2101274;28;20021;-69
2021/08/15 14:10:44;;;;;;;2.88;0.32;;;;;;;;;;2103192;28;20114;-69
2021/08/15 14:12:04;;;;;;;0.50;0.35;;;;;;;;;;2094332;28;20446;-69
2021/08/15 14:13:23;;;;;;;1.10;0.40;;;;;;;;;;2099140;28;20024;-70
2021/08/15 14:14:41;;;;;;;1.27;0.30;;;;;;;;;;2095750;28;20012;-70
2021/08/15 14:16:00;;;;;;;0.30;0.20;;;;;;;;;;2101492;28;20028;-69
2021/08/15 14:17:19;;;;;;;0.60;0.20;;;;;;;;;;2092632;28;20391;-70
2021/08/15 14:18:38;;;;;;;0.93;0.10;;;;;;;;;;2096565;28;20024;-70
2021/08/15 14:19:58;;;;;;;1.55;0.30;;;;;;;;;;2105401;28;20020;-70
2021/08/15 14:21:16;;;;;;;0.20;0.20;;;;;;;;;;2097437;28;20111;-69
2021/08/15 14:22:35;;;;;;;1.75;0.20;;;;;;;;;;2098053;28;20036;-70
2021/08/15 14:23:55;;;;;;;0.30;0.22;;;;;;;;;;2104424;28;20062;-70
2021/08/15 14:25:14;;;;;;;1.45;0.30;;;;;;;;;;2090198;28;20028;-70
2021/08/15 14:26:33;;;;;;;0.30;0.30;;;;;;;;;;2097086;28;20037;-70
2021/08/15 14:27:52;;;;;;;2.60;0.30;;;;;;;;;;2100184;28;20067;-70
2021/08/15 14:29:11;;;;;;;0.50;0.22;;;;;;;;;;2102318;28;20039;-70
2021/08/15 14:30:30;;;;;;;1.75;0.40;;;;;;;;;;2103676;28;20119;-70
2021/08/15 14:31:49;;;;;;;0.30;0.30;;;;;;;;;;2091879;28;20119;-69
2021/08/15 14:33:07;;;;;;;0.50;0.43;;;;;;;;;;2090108;28;20029;-70
2021/08/15 14:34:26;;;;;;;0.60;0.50;;;;;;;;;;2087841;28;20502;-69
2021/08/15 14:35:45;;;;;;;2.03;0.40;;;;;;;;;;2097109;28;20758;-70
2021/08/15 14:37:04;;;;;;;2.38;0.30;;;;;;;;;;2092861;28;20025;-70
2021/08/15 14:38:22;;;;;;;1.13;0.50;;;;;;;;;;2088515;28;20021;-69
2021/08/15 14:39:41;;;;;;;1.00;0.40;;;;;;;;;;2100499;28;20506;-69
2021/08/15 14:41:00;;;;;;;0.30;0.30;;;;;;;;;;2105293;28;20036;-70
2021/08/15 14:42:19;;;;;;;1.73;0.60;;;;;;;;;;2105104;28;20114;-70
2021/08/15 14:43:40;;;;;;;3.55;0.30;;;;;;;;;;2095207;28;20025;-70
2021/08/15 14:44:59;;;;;;;0.73;0.40;;;;;;;;;;2099244;28;20032;-70
2021/08/15 14:46:21;;;;;;;0.52;0.30;;;;;;;;;;2096759;28;20028;-69
2021/08/15 14:49:08;;;;;;;2.10;0.50;;;;;;;;;;2082301;28;20064;-77
2021/08/15 14:50:27;;;;;;;0.40;0.32;;;;;;;;;;2088693;28;20028;-77
2021/08/15 14:51:46;;;;;;;2.95;0.32;;;;;;;;;;2082659;28;20048;-77
2021/08/15 14:53:05;;;;;;;1.67;0.30;;;;;;;;;;2077337;28;20037;-75
2021/08/15 14:54:26;;;;;;;0.47;0.38;;;;;;;;;;2085888;28;20381;-76
2021/08/15 14:55:45;;;;;;;0.60;0.40;;;;;;;;;;2083235;28;20413;-76
2021/08/15 14:57:09;;;;;;;0.77;0.50;;;;;;;;;;2081134;28;20057;-77
2021/08/15 14:58:29;;;;;;;0.60;0.40;;;;;;;;;;2082652;28;20390;-76
2021/08/15 14:59:48;;;;;;;2.65;0.60;;;;;;;;;;2075731;28;20116;-76
2021/08/15 15:01:06;;;;;;;1.35;0.88;;;;;;;;;;2074511;28;20057;-77
2021/08/15 15:02:25;;;;;;;1.00;0.32;;;;;;;;;;2073719;28;20029;-77
2021/08/15 15:03:44;;;;;;;1.77;0.50;;;;;;;;;;2076769;28;20140;-77
2021/08/15 15:05:03;;;;;;;0.70;0.40;;;;;;;;;;2078045;28;20104;-76
2021/08/15 15:06:22;;;;;;;0.65;0.30;;;;;;;;;;2080987;28;20029;-76
2021/08/15 15:07:41;;;;;;;0.30;0.30;;;;;;;;;;2088531;28;20025;-76
2021/08/15 15:09:00;;;;;;;0.47;0.40;;;;;;;;;;2089210;28;20033;-75
2021/08/15 15:10:20;;;;;;;0.30;0.30;;;;;;;;;;2085069;28;20059;-76
2021/08/15 15:11:39;;;;;;;0.70;0.35;;;;;;;;;;2082595;28;20033;-76
2021/08/15 15:12:58;;;;;;;1.23;0.30;;;;;;;;;;2080919;28;20076;-77
2021/08/15 15:14:17;;;;;;;0.45;0.45;;;;;;;;;;2072263;28;20482;-75
2021/08/15 15:15:37;;;;;;;1.10;0.60;;;;;;;;;;2083191;28;20028;-76
2021/08/15 15:19:09;;;;;;;1.50;0.40;;;;;;;;;;2079769;28;20076;-80